createdAt,value
2018-06-17T00:00:16.110Z,0.00
2018-06-17T00:01:16.068Z,0.00
2018-06-17T00:02:16.056Z,0.00
2018-06-17T00:03:16.059Z,0.00
2018-06-17T00:04:16.013Z,0.00
2018-06-17T00:05:15.977Z,0.00
2018-06-17T00:06:15.955Z,0.00
2018-06-17T00:07:15.928Z,0.00
2018-06-17T00:08:15.899Z,0.00
2018-06-17T00:09:15.880Z,0.00
2018-06-17T00:10:15.854Z,0.00
2018-06-17T00:11:15.829Z,0.00
2018-06-17T00:12:15.806Z,0.00
2018-06-17T00:13:15.782Z,0.00
2018-06-17T00:14:15.762Z,0.00
2018-06-17T00:15:15.736Z,0.00
2018-06-17T00:16:15.724Z,0.00
2018-06-17T00:17:15.693Z,0.00
2018-06-17T00:18:15.669Z,0.00
2018-06-17T00:19:15.626Z,0.00
2018-06-17T00:20:15.623Z,0.00
2018-06-17T00:21:15.586Z,0.00
2018-06-17T00:22:15.571Z,0.00
2018-06-17T00:23:15.538Z,0.00
2018-06-17T00:24:15.515Z,0.00
2018-06-17T00:25:15.490Z,0.00
2018-06-17T00:26:15.481Z,0.00
2018-06-17T00:27:15.436Z,0.00
2018-06-17T00:28:15.418Z,0.00
2018-06-17T00:29:15.401Z,0.00
2018-06-17T00:30:15.370Z,0.00
2018-06-17T00:31:15.345Z,0.00
2018-06-17T00:32:15.326Z,0.00
2018-06-17T00:33:15.296Z,0.00
2018-06-17T00:34:15.269Z,0.00
2018-06-17T00:35:15.250Z,0.00
2018-06-17T00:36:15.230Z,0.00
2018-06-17T00:37:15.209Z,0.00
2018-06-17T00:38:15.183Z,0.00
2018-06-17T00:39:15.148Z,0.00
2018-06-17T00:40:15.147Z,0.00
2018-06-17T00:41:15.103Z,0.00
2018-06-17T00:42:15.083Z,0.00
2018-06-17T00:43:15.049Z,0.00
2018-06-17T00:44:15.062Z,0.00
2018-06-17T00:45:15.015Z,0.00
2018-06-17T00:46:14.988Z,0.00
2018-06-17T00:47:15.008Z,0.00
2018-06-17T00:48:14.942Z,0.00
2018-06-17T00:49:14.916Z,0.00
2018-06-17T00:50:14.890Z,0.00
2018-06-17T00:51:14.865Z,0.00
2018-06-17T00:52:14.840Z,0.00
2018-06-17T00:53:14.820Z,0.00
2018-06-17T00:54:14.805Z,0.00
2018-06-17T00:55:14.781Z,0.00
2018-06-17T00:56:14.845Z,0.00
2018-06-17T00:57:14.891Z,0.00
2018-06-17T00:58:14.971Z,0.00
2018-06-17T00:59:14.975Z,0.00
2018-06-17T01:00:14.654Z,0.00
2018-06-17T01:01:14.629Z,0.00
2018-06-17T01:02:14.601Z,0.00
2018-06-17T01:03:14.599Z,0.00
2018-06-17T01:04:14.544Z,0.00
2018-06-17T01:05:14.521Z,0.00
2018-06-17T01:06:14.503Z,0.00
2018-06-17T01:07:14.474Z,0.00
2018-06-17T01:08:14.453Z,0.00
2018-06-17T01:09:14.429Z,0.00
2018-06-17T01:10:14.411Z,0.00
2018-06-17T01:11:14.382Z,0.00
2018-06-17T01:12:14.359Z,0.00
2018-06-17T01:13:14.328Z,0.00
2018-06-17T01:14:14.311Z,0.00
2018-06-17T01:15:14.279Z,0.00
2018-06-17T01:16:14.277Z,0.00
2018-06-17T01:17:14.223Z,0.00
2018-06-17T01:18:14.223Z,0.00
2018-06-17T01:19:14.192Z,0.00
2018-06-17T01:20:14.168Z,0.00
2018-06-17T01:21:14.152Z,0.00
2018-06-17T01:22:14.116Z,0.00
2018-06-17T01:23:14.081Z,0.00
2018-06-17T01:24:14.062Z,0.00
2018-06-17T01:25:14.031Z,0.00
2018-06-17T01:26:14.022Z,0.00
2018-06-17T01:27:13.993Z,0.00
2018-06-17T01:28:13.960Z,0.00
2018-06-17T01:29:13.938Z,0.00
2018-06-17T01:30:13.913Z,0.00
2018-06-17T01:31:13.890Z,0.00
2018-06-17T01:32:13.871Z,0.00
2018-06-17T01:33:13.838Z,0.00
2018-06-17T01:34:13.872Z,0.00
2018-06-17T01:35:13.929Z,0.00
2018-06-17T01:36:14.003Z,0.00
2018-06-17T01:37:14.043Z,0.00
2018-06-17T01:38:13.996Z,0.00
2018-06-17T01:39:13.702Z,0.00
2018-06-17T01:40:13.682Z,0.00
2018-06-17T01:41:13.696Z,0.00
2018-06-17T01:42:13.631Z,0.00
2018-06-17T01:43:13.643Z,0.00
2018-06-17T01:44:14.574Z,0.00
2018-06-17T01:45:13.569Z,0.00
2018-06-17T01:46:13.542Z,0.00
2018-06-17T01:47:13.521Z,0.00
2018-06-17T01:48:14.745Z,0.00
2018-06-17T01:49:13.541Z,0.00
2018-06-17T01:50:13.464Z,0.00
2018-06-17T01:51:58.952Z,0.00
2018-06-17T01:52:58.908Z,0.00
2018-06-17T01:53:58.903Z,0.00
2018-06-17T01:54:58.867Z,0.00
2018-06-17T01:55:58.832Z,0.00
2018-06-17T01:56:58.824Z,0.00
2018-06-17T01:57:58.787Z,0.00
2018-06-17T01:58:58.765Z,0.00
2018-06-17T01:59:58.730Z,0.00
2018-06-17T02:00:59.725Z,0.00
2018-06-17T02:01:58.684Z,0.00
2018-06-17T02:02:58.663Z,0.00
2018-06-17T02:03:58.633Z,0.00
2018-06-17T02:04:58.627Z,0.00
2018-06-17T02:05:58.599Z,0.00
2018-06-17T02:06:58.573Z,0.00
2018-06-17T02:07:58.529Z,0.00
2018-06-17T02:08:58.518Z,0.00
2018-06-17T02:09:58.493Z,0.00
2018-06-17T02:10:58.463Z,0.00
2018-06-17T02:11:58.447Z,0.00
2018-06-17T02:12:58.418Z,0.00
2018-06-17T02:13:58.383Z,0.00
2018-06-17T02:14:58.369Z,0.00
2018-06-17T02:15:58.340Z,0.00
2018-06-17T02:16:58.319Z,0.00
2018-06-17T02:17:58.296Z,0.00
2018-06-17T02:18:58.278Z,0.00
2018-06-17T02:19:58.239Z,0.00
2018-06-17T02:20:58.219Z,0.00
2018-06-17T02:21:58.216Z,0.00
2018-06-17T02:22:58.167Z,0.00
2018-06-17T02:23:58.149Z,0.00
2018-06-17T02:24:58.126Z,0.00
2018-06-17T02:25:58.093Z,0.00
2018-06-17T02:26:58.076Z,0.00
2018-06-17T02:27:58.062Z,4.00
2018-06-17T02:28:58.030Z,4.00
2018-06-17T02:29:58.006Z,4.00
2018-06-17T02:30:57.980Z,0.00
2018-06-17T02:31:57.951Z,0.00
2018-06-17T02:32:57.936Z,0.00
2018-06-17T02:33:57.935Z,4.00
2018-06-17T02:34:57.886Z,4.00
2018-06-17T02:35:57.846Z,4.00
2018-06-17T02:36:57.824Z,4.00
2018-06-17T02:37:57.816Z,4.00
2018-06-17T02:38:57.781Z,4.00
2018-06-17T02:39:57.755Z,8.00
2018-06-17T02:40:57.729Z,4.00
2018-06-17T02:41:57.699Z,4.00
2018-06-17T02:42:57.679Z,8.00
2018-06-17T02:43:57.658Z,8.00
2018-06-17T02:44:57.628Z,8.00
2018-06-17T02:45:57.596Z,4.00
2018-06-17T02:46:57.577Z,4.00
2018-06-17T02:47:57.563Z,8.00
2018-06-17T02:48:57.542Z,8.00
2018-06-17T02:49:57.503Z,12.00
2018-06-17T02:50:58.501Z,8.00
2018-06-17T02:51:57.450Z,8.00
2018-06-17T02:52:57.440Z,8.00
2018-06-17T02:53:57.405Z,12.00
2018-06-17T02:54:57.395Z,12.00
2018-06-17T02:55:57.361Z,16.00
2018-06-17T02:56:57.333Z,20.00
2018-06-17T02:57:57.330Z,20.00
2018-06-17T02:58:57.294Z,24.00
2018-06-17T02:59:57.261Z,32.00
2018-06-17T03:00:57.239Z,36.00
2018-06-17T03:01:57.207Z,40.00
2018-06-17T03:02:57.185Z,52.00
2018-06-17T03:03:57.219Z,60.00
2018-06-17T03:04:57.149Z,68.00
2018-06-17T03:05:57.107Z,72.00
2018-06-17T03:06:57.088Z,80.00
2018-06-17T03:07:57.060Z,88.00
2018-06-17T03:08:57.042Z,92.00
2018-06-17T03:09:57.016Z,104.00
2018-06-17T03:10:56.982Z,116.00
2018-06-17T03:11:56.962Z,120.00
2018-06-17T03:12:56.947Z,132.00
2018-06-17T03:13:56.920Z,136.00
2018-06-17T03:14:56.998Z,140.00
2018-06-17T03:15:57.051Z,152.00
2018-06-17T03:17:42.878Z,184.00
2018-06-17T03:18:42.830Z,196.00
2018-06-17T03:19:42.797Z,216.00
2018-06-17T03:20:42.779Z,236.00
2018-06-17T03:21:42.755Z,260.00
2018-06-17T03:22:42.728Z,256.00
2018-06-17T03:23:42.700Z,236.00
2018-06-17T03:24:42.725Z,240.00
2018-06-17T03:25:42.643Z,248.00
2018-06-17T03:26:42.630Z,272.00
2018-06-17T03:27:42.602Z,308.00
2018-06-17T03:28:42.594Z,336.00
2018-06-17T03:29:42.560Z,336.00
2018-06-17T03:30:42.534Z,348.00
2018-06-17T03:31:42.499Z,372.00
2018-06-17T03:32:42.491Z,372.00
2018-06-17T03:33:42.451Z,396.00
2018-06-17T03:34:42.452Z,468.00
2018-06-17T03:35:42.401Z,480.00
2018-06-17T03:36:42.378Z,472.00
2018-06-17T03:37:42.350Z,480.00
2018-06-17T03:38:42.331Z,504.00
2018-06-17T03:39:42.297Z,520.00
2018-06-17T03:40:42.300Z,532.00
2018-06-17T03:41:42.258Z,476.00
2018-06-17T03:42:43.240Z,436.00
2018-06-17T03:43:42.207Z,448.00
2018-06-17T03:44:42.190Z,512.00
2018-06-17T03:45:42.158Z,560.00
2018-06-17T03:46:42.144Z,580.00
2018-06-17T03:47:42.105Z,576.00
2018-06-17T03:48:42.093Z,560.00
2018-06-17T03:49:42.065Z,584.00
2018-06-17T03:50:42.046Z,588.00
2018-06-17T03:51:42.013Z,556.00
2018-06-17T03:52:42.027Z,584.00
2018-06-17T03:53:41.956Z,592.00
2018-06-17T03:54:41.940Z,608.00
2018-06-17T03:55:41.904Z,664.00
2018-06-17T03:56:41.882Z,676.00
2018-06-17T03:57:41.864Z,664.00
2018-06-17T03:58:41.837Z,680.00
2018-06-17T03:59:41.822Z,728.00
2018-06-17T04:00:41.789Z,764.00
2018-06-17T04:01:41.760Z,812.00
2018-06-17T04:02:41.738Z,884.00
2018-06-17T04:03:41.712Z,944.00
2018-06-17T04:04:41.689Z,980.00
2018-06-17T04:05:41.664Z,988.00
2018-06-17T04:06:41.644Z,1012.00
2018-06-17T04:07:41.612Z,1048.00
2018-06-17T04:08:41.609Z,1020.00
2018-06-17T04:09:41.569Z,1016.00
2018-06-17T04:10:41.543Z,1108.00
2018-06-17T04:11:41.516Z,1164.00
2018-06-17T04:12:41.510Z,1208.00
2018-06-17T04:13:41.473Z,1416.00
2018-06-17T04:14:41.441Z,1588.00
2018-06-17T04:15:41.424Z,1516.00
2018-06-17T04:16:41.399Z,1388.00
2018-06-17T04:17:41.382Z,1280.00
2018-06-17T04:18:41.347Z,1228.00
2018-06-17T04:19:41.319Z,1136.00
2018-06-17T04:20:41.294Z,1072.00
2018-06-17T04:21:41.306Z,1096.00
2018-06-17T04:23:27.191Z,1176.00
2018-06-17T04:24:27.143Z,1076.00
2018-06-17T04:25:27.123Z,1124.00
2018-06-17T04:26:27.100Z,1196.00
2018-06-17T04:27:27.061Z,1308.00
2018-06-17T04:28:27.059Z,1376.00
2018-06-17T04:29:27.009Z,1536.00
2018-06-17T04:30:26.996Z,1596.00
2018-06-17T04:31:26.967Z,1604.00
2018-06-17T04:32:26.943Z,1496.00
2018-06-17T04:33:26.929Z,1388.00
2018-06-17T04:34:26.912Z,1304.00
2018-06-17T04:35:26.862Z,1284.00
2018-06-17T04:36:26.841Z,1476.00
2018-06-17T04:37:26.837Z,1464.00
2018-06-17T04:38:26.801Z,1408.00
2018-06-17T04:39:26.768Z,1388.00
2018-06-17T04:40:26.744Z,1316.00
2018-06-17T04:41:26.715Z,1164.00
2018-06-17T04:42:26.712Z,1244.00
2018-06-17T04:43:26.688Z,1420.00
2018-06-17T04:44:26.640Z,1400.00
2018-06-17T04:45:26.628Z,1688.00
2018-06-17T04:46:26.617Z,1552.00
2018-06-17T04:47:12.102Z,1560.00
2018-06-17T04:48:12.001Z,1548.00
2018-06-17T04:49:11.979Z,1852.00
2018-06-17T04:50:12.084Z,2192.00
2018-06-17T04:51:12.053Z,2476.00
2018-06-17T04:52:11.940Z,2732.00
2018-06-17T04:53:11.871Z,2384.00
2018-06-17T04:54:11.861Z,2100.00
2018-06-17T04:55:11.836Z,1924.00
2018-06-17T04:56:11.820Z,1932.00
2018-06-17T04:57:11.780Z,1800.00
2018-06-17T04:58:11.765Z,1732.00
2018-06-17T04:59:11.732Z,1256.00
2018-06-17T05:00:11.713Z,1276.00
2018-06-17T05:01:11.674Z,1364.00
2018-06-17T05:02:11.652Z,1816.00
2018-06-17T05:03:11.643Z,1800.00
2018-06-17T05:04:11.624Z,1796.00
2018-06-17T05:05:11.587Z,1808.00
2018-06-17T05:06:11.594Z,1816.00
2018-06-17T05:07:11.532Z,1824.00
2018-06-17T05:08:11.515Z,1840.00
2018-06-17T05:09:11.486Z,1836.00
2018-06-17T05:10:11.456Z,1836.00
2018-06-17T05:11:11.433Z,1820.00
2018-06-17T05:12:11.414Z,1812.00
2018-06-17T05:13:11.385Z,1800.00
2018-06-17T05:14:11.359Z,1788.00
2018-06-17T05:15:11.329Z,1772.00
2018-06-17T05:16:11.333Z,1772.00
2018-06-17T05:17:11.328Z,1764.00
2018-06-17T05:18:11.279Z,1772.00
2018-06-17T05:19:11.233Z,1764.00
2018-06-17T05:20:11.234Z,1752.00
2018-06-17T05:21:11.194Z,1708.00
2018-06-17T05:22:11.163Z,1740.00
2018-06-17T05:23:11.139Z,1756.00
2018-06-17T05:24:11.109Z,1788.00
2018-06-17T05:25:11.087Z,1716.00
2018-06-17T05:26:11.068Z,1732.00
2018-06-17T05:27:11.036Z,1804.00
2018-06-17T05:28:11.039Z,1936.00
2018-06-17T05:29:10.988Z,2028.00
2018-06-17T05:30:10.998Z,2104.00
2018-06-17T05:31:10.946Z,2328.00
2018-06-17T05:32:10.927Z,2532.00
2018-06-17T05:33:10.889Z,2672.00
2018-06-17T05:34:10.883Z,2744.00
2018-06-17T05:35:10.861Z,2780.00
2018-06-17T05:36:10.827Z,2748.00
2018-06-17T05:37:57.255Z,2708.00
2018-06-17T05:38:57.181Z,2696.00
2018-06-17T05:39:57.170Z,2652.00
2018-06-17T05:40:57.127Z,2568.00
2018-06-17T05:41:57.413Z,2516.00
2018-06-17T05:42:57.093Z,2452.00
2018-06-17T05:43:57.056Z,2392.00
2018-06-17T05:44:57.038Z,2392.00
2018-06-17T05:45:57.019Z,2392.00
2018-06-17T05:46:57.026Z,2420.00
2018-06-17T05:47:57.094Z,2488.00
2018-06-17T05:48:57.181Z,2548.00
2018-06-17T05:49:57.218Z,2676.00
2018-06-17T05:50:57.170Z,2772.00
2018-06-17T05:51:56.856Z,2880.00
2018-06-17T05:52:56.831Z,2892.00
2018-06-17T05:53:56.818Z,2924.00
2018-06-17T05:54:56.825Z,2892.00
2018-06-17T05:55:56.767Z,2912.00
2018-06-17T05:56:56.753Z,2980.00
2018-06-17T05:58:42.169Z,2980.00
2018-06-17T05:59:42.127Z,2964.00
2018-06-17T06:00:42.076Z,2888.00
2018-06-17T06:01:42.055Z,2820.00
2018-06-17T06:02:42.050Z,2760.00
2018-06-17T06:03:41.999Z,2744.00
2018-06-17T06:04:41.996Z,2804.00
2018-06-17T06:05:41.957Z,2860.00
2018-06-17T06:06:41.936Z,2868.00
2018-06-17T06:07:41.898Z,2904.00
2018-06-17T06:08:41.898Z,3044.00
2018-06-17T06:09:41.859Z,3108.00
2018-06-17T06:10:41.832Z,3160.00
2018-06-17T06:11:41.807Z,3140.00
2018-06-17T06:12:41.781Z,3064.00
2018-06-17T06:13:41.767Z,3068.00
2018-06-17T06:14:41.772Z,3012.00
2018-06-17T06:16:27.135Z,2880.00
2018-06-17T06:17:27.093Z,2808.00
2018-06-17T06:18:27.065Z,2844.00
2018-06-17T06:19:27.051Z,2848.00
2018-06-17T06:20:27.027Z,2952.00
2018-06-17T06:21:26.980Z,3036.00
2018-06-17T06:22:26.961Z,3084.00
2018-06-17T06:23:26.944Z,3176.00
2018-06-17T06:24:26.960Z,3176.00
2018-06-17T06:25:26.886Z,3156.00
2018-06-17T06:26:26.878Z,2972.00
2018-06-17T06:27:26.863Z,2916.00
2018-06-17T06:28:26.814Z,2876.00
2018-06-17T06:29:26.851Z,2852.00
2018-06-17T06:30:26.767Z,2916.00
2018-06-17T06:31:26.750Z,2972.00
2018-06-17T06:32:26.743Z,3012.00
2018-06-17T06:33:26.764Z,3248.00
2018-06-17T06:34:26.667Z,3384.00
2018-06-17T06:35:26.674Z,4612.00
2018-06-17T06:36:26.618Z,4300.00
2018-06-17T06:37:26.707Z,3176.00
2018-06-17T06:38:26.577Z,4292.00
2018-06-17T06:39:26.618Z,4684.00
2018-06-17T06:40:26.519Z,3344.00
2018-06-17T06:41:26.523Z,3420.00
2018-06-17T06:42:26.472Z,3700.00
2018-06-17T06:44:12.512Z,3696.00
2018-06-17T06:45:12.509Z,3708.00
2018-06-17T06:46:12.413Z,3644.00
2018-06-17T06:47:12.422Z,3640.00
2018-06-17T06:48:12.382Z,4108.00
2018-06-17T06:49:12.451Z,3492.00
2018-06-17T06:50:12.308Z,3412.00
2018-06-17T06:51:12.350Z,3196.00
2018-06-17T06:52:12.275Z,3272.00
2018-06-17T06:53:12.261Z,3392.00
2018-06-17T06:54:12.231Z,3452.00
2018-06-17T06:55:12.282Z,4448.00
2018-06-17T06:56:12.190Z,4152.00
2018-06-17T06:57:12.183Z,4868.00
2018-06-17T06:58:12.127Z,5488.00
2018-06-17T06:59:12.210Z,4256.00
2018-06-17T07:00:12.077Z,5268.00
2018-06-17T07:01:12.118Z,4096.00
2018-06-17T07:02:12.026Z,3924.00
2018-06-17T07:03:12.021Z,3872.00
2018-06-17T07:04:11.977Z,3956.00
2018-06-17T07:05:12.039Z,4020.00
2018-06-17T07:06:11.922Z,4244.00
2018-06-17T07:07:12.045Z,4216.00
2018-06-17T07:08:11.869Z,4332.00
2018-06-17T07:09:11.961Z,4388.00
2018-06-17T07:10:11.828Z,4524.00
2018-06-17T07:11:12.010Z,4684.00
2018-06-17T07:11:57.437Z,4748.00
2018-06-17T07:12:57.557Z,4836.00
2018-06-17T07:13:57.367Z,4992.00
2018-06-17T07:14:57.460Z,5156.00
2018-06-17T07:15:57.316Z,5172.00
2018-06-17T07:16:57.379Z,5340.00
2018-06-17T07:17:57.267Z,5304.00
2018-06-17T07:18:57.376Z,5316.00
2018-06-17T07:19:57.203Z,5688.00
2018-06-17T07:20:57.293Z,5192.00
2018-06-17T07:21:57.157Z,5164.00
2018-06-17T07:22:57.392Z,5260.00
2018-06-17T07:23:57.136Z,5324.00
2018-06-17T07:24:57.281Z,5328.00
2018-06-17T07:25:57.073Z,5376.00
2018-06-17T07:26:57.144Z,5356.00
2018-06-17T07:27:57.020Z,5380.00
2018-06-17T07:28:57.156Z,5260.00
2018-06-17T07:29:56.958Z,5012.00
2018-06-17T07:30:57.080Z,4876.00
2018-06-17T07:31:56.929Z,4828.00
2018-06-17T07:32:57.087Z,4640.00
2018-06-17T07:33:56.857Z,4636.00
2018-06-17T07:34:57.001Z,4804.00
2018-06-17T07:35:56.829Z,5104.00
2018-06-17T07:36:56.895Z,5300.00
2018-06-17T07:38:42.426Z,5420.00
2018-06-17T07:39:42.316Z,5468.00
2018-06-17T07:40:42.303Z,5532.00
2018-06-17T07:41:42.390Z,5604.00
2018-06-17T07:42:42.256Z,5664.00
2018-06-17T07:43:42.477Z,5648.00
2018-06-17T07:44:42.228Z,5692.00
2018-06-17T07:45:42.320Z,5684.00
2018-06-17T07:46:42.139Z,5652.00
2018-06-17T07:47:42.255Z,5688.00
2018-06-17T07:48:42.153Z,5720.00
2018-06-17T07:49:42.254Z,5720.00
2018-06-17T07:50:42.045Z,5772.00
2018-06-17T07:51:42.178Z,5884.00
2018-06-17T07:52:42.002Z,5976.00
2018-06-17T07:53:42.200Z,6064.00
2018-06-17T07:54:42.007Z,6124.00
2018-06-17T07:55:43.413Z,6192.00
2018-06-17T07:56:41.890Z,6152.00
2018-06-17T07:57:42.008Z,6108.00
2018-06-17T07:58:41.863Z,6052.00
2018-06-17T07:59:42.037Z,6012.00
2018-06-17T08:00:41.801Z,5964.00
2018-06-17T08:01:41.927Z,5876.00
2018-06-17T08:02:41.747Z,6428.00
2018-06-17T08:03:41.939Z,6812.00
2018-06-17T08:04:41.709Z,6784.00
2018-06-17T08:05:41.845Z,6736.00
2018-06-17T08:06:41.663Z,7236.00
2018-06-17T08:07:41.771Z,6356.00
2018-06-17T08:08:41.622Z,6344.00
2018-06-17T08:09:41.770Z,6624.00
2018-06-17T08:10:41.615Z,7576.00
2018-06-17T08:12:27.250Z,7116.00
2018-06-17T08:13:27.381Z,6940.00
2018-06-17T08:14:27.178Z,6892.00
2018-06-17T08:15:27.270Z,6848.00
2018-06-17T08:16:27.140Z,6200.00
2018-06-17T08:17:27.413Z,6832.00
2018-06-17T08:18:27.405Z,6960.00
2018-06-17T08:19:27.054Z,7044.00
2018-06-17T08:20:27.239Z,6676.00
2018-06-17T08:21:26.991Z,6696.00
2018-06-17T08:22:27.116Z,7128.00
2018-06-17T08:23:26.960Z,7100.00
2018-06-17T08:24:27.136Z,7368.00
2018-06-17T08:25:26.916Z,7544.00
2018-06-17T08:26:27.092Z,7824.00
2018-06-17T08:27:26.863Z,7368.00
2018-06-17T08:28:26.960Z,7192.00
2018-06-17T08:29:27.104Z,7188.00
2018-06-17T08:30:27.016Z,7068.00
2018-06-17T08:31:27.063Z,7000.00
2018-06-17T08:32:26.736Z,7760.00
2018-06-17T08:33:26.818Z,8372.00
2018-06-17T08:34:26.675Z,8888.00
2018-06-17T08:35:26.652Z,7692.00
2018-06-17T08:36:26.623Z,7872.00
2018-06-17T08:37:26.608Z,7712.00
2018-06-17T08:38:26.582Z,6568.00
2018-06-17T08:39:26.586Z,7212.00
2018-06-17T08:40:26.668Z,7444.00
2018-06-17T08:41:26.510Z,7356.00
2018-06-17T08:42:26.580Z,8172.00
2018-06-17T08:43:26.459Z,6428.00
2018-06-17T08:44:26.605Z,5548.00
2018-06-17T08:45:26.406Z,5692.00
2018-06-17T08:46:26.507Z,6052.00
2018-06-17T08:47:26.360Z,5876.00
2018-06-17T08:48:26.416Z,5964.00
2018-06-17T08:49:26.325Z,6316.00
2018-06-17T08:50:26.428Z,7600.00
2018-06-17T08:51:26.261Z,6756.00
2018-06-17T08:52:26.342Z,7632.00
2018-06-17T08:53:26.213Z,6944.00
2018-06-17T08:54:26.366Z,6416.00
2018-06-17T08:55:26.161Z,6312.00
2018-06-17T08:56:26.276Z,6536.00
2018-06-17T08:57:26.146Z,7528.00
2018-06-17T08:58:26.116Z,8160.00
2018-06-17T08:59:26.071Z,8760.00
2018-06-17T09:00:26.131Z,9080.00
2018-06-17T09:01:26.028Z,9400.00
2018-06-17T09:02:26.041Z,9352.00
2018-06-17T09:03:25.966Z,9348.00
2018-06-17T09:04:26.056Z,8960.00
2018-06-17T09:05:25.918Z,9192.00
2018-06-17T09:06:25.963Z,9248.00
2018-06-17T09:07:25.870Z,9376.00
2018-06-17T09:08:25.874Z,9272.00
2018-06-17T09:09:25.821Z,9256.00
2018-06-17T09:10:25.899Z,9008.00
2018-06-17T09:11:25.774Z,9108.00
2018-06-17T09:12:25.851Z,8700.00
2018-06-17T09:13:25.736Z,8084.00
2018-06-17T09:14:25.804Z,8284.00
2018-06-17T09:15:25.695Z,8424.00
2018-06-17T09:16:25.719Z,7604.00
2018-06-17T09:17:25.630Z,8204.00
2018-06-17T09:18:25.622Z,8900.00
2018-06-17T09:19:25.619Z,9536.00
2018-06-17T09:20:25.643Z,9572.00
2018-06-17T09:21:25.533Z,9748.00
2018-06-17T09:22:25.554Z,9756.00
2018-06-17T09:23:25.481Z,8088.00
2018-06-17T09:24:25.475Z,8644.00
2018-06-17T09:25:25.433Z,7760.00
2018-06-17T09:26:25.579Z,8400.00
2018-06-17T09:27:25.380Z,7956.00
2018-06-17T09:28:25.395Z,8668.00
2018-06-17T09:29:25.397Z,9100.00
2018-06-17T09:30:25.428Z,9160.00
2018-06-17T09:31:25.285Z,8968.00
2018-06-17T09:32:26.337Z,8784.00
2018-06-17T09:33:25.238Z,8560.00
2018-06-17T09:34:25.328Z,7988.00
2018-06-17T09:35:25.193Z,6976.00
2018-06-17T09:36:25.243Z,6888.00
2018-06-17T09:37:25.142Z,7148.00
2018-06-17T09:38:25.140Z,7496.00
2018-06-17T09:39:25.103Z,7632.00
2018-06-17T09:40:25.175Z,7988.00
2018-06-17T09:41:25.044Z,7356.00
2018-06-17T09:42:25.067Z,8284.00
2018-06-17T09:43:24.996Z,8204.00
2018-06-17T09:44:25.129Z,6024.00
2018-06-17T09:45:24.949Z,7908.00
2018-06-17T09:46:24.987Z,8036.00
2018-06-17T09:47:24.899Z,8536.00
2018-06-17T09:48:24.894Z,8560.00
2018-06-17T09:49:24.850Z,8752.00
2018-06-17T09:50:25.948Z,7720.00
2018-06-17T09:51:24.799Z,9180.00
2018-06-17T09:52:24.818Z,9860.00
2018-06-17T09:53:24.753Z,9752.00
2018-06-17T09:54:24.837Z,9016.00
2018-06-17T09:55:24.716Z,7648.00
2018-06-17T09:56:24.752Z,6368.00
2018-06-17T09:57:24.653Z,7172.00
2018-06-17T09:58:24.672Z,9184.00
2018-06-17T09:59:24.640Z,8288.00
2018-06-17T10:00:24.671Z,8064.00
2018-06-17T10:01:24.593Z,8108.00
2018-06-17T10:02:24.575Z,8472.00
2018-06-17T10:03:24.512Z,8416.00
2018-06-17T10:04:24.596Z,8828.00
2018-06-17T10:05:24.467Z,8752.00
2018-06-17T10:06:24.500Z,8136.00
2018-06-17T10:07:24.413Z,8136.00
2018-06-17T10:08:24.382Z,6596.00
2018-06-17T10:09:24.438Z,4564.00
2018-06-17T10:10:24.345Z,6836.00
2018-06-17T10:11:24.347Z,6304.00
2018-06-17T10:12:24.297Z,4976.00
2018-06-17T10:13:24.342Z,4996.00
2018-06-17T10:14:24.242Z,5004.00
2018-06-17T10:15:24.215Z,6080.00
2018-06-17T10:16:24.286Z,7232.00
2018-06-17T10:17:24.166Z,6676.00
2018-06-17T10:18:24.148Z,6520.00
2018-06-17T10:19:24.197Z,6012.00
2018-06-17T10:20:24.095Z,6940.00
2018-06-17T10:21:24.069Z,6284.00
2018-06-17T10:22:24.045Z,5568.00
2018-06-17T10:23:24.023Z,5192.00
2018-06-17T10:24:24.001Z,6116.00
2018-06-17T10:25:23.976Z,7272.00
2018-06-17T10:26:23.965Z,6196.00
2018-06-17T10:27:23.935Z,5704.00
2018-06-17T10:28:23.913Z,6736.00
2018-06-17T10:29:23.957Z,6260.00
2018-06-17T10:30:23.862Z,7592.00
2018-06-17T10:31:23.830Z,7656.00
2018-06-17T10:32:23.816Z,7536.00
2018-06-17T10:33:23.780Z,7756.00
2018-06-17T10:34:23.763Z,4844.00
2018-06-17T10:35:23.745Z,5304.00
2018-06-17T10:36:23.712Z,6368.00
2018-06-17T10:37:23.682Z,6700.00
2018-06-17T10:38:23.667Z,7448.00
2018-06-17T10:39:23.641Z,9116.00
2018-06-17T10:40:23.620Z,9124.00
2018-06-17T10:41:23.589Z,7776.00
2018-06-17T10:42:23.566Z,6468.00
2018-06-17T10:43:23.662Z,6180.00
2018-06-17T10:44:23.563Z,7684.00
2018-06-17T10:45:23.492Z,9652.00
2018-06-17T10:46:23.473Z,10736.00
2018-06-17T10:47:23.441Z,10840.00
2018-06-17T10:48:23.435Z,10988.00
2018-06-17T10:49:23.390Z,11288.00
2018-06-17T10:50:23.378Z,10096.00
2018-06-17T10:51:23.365Z,8320.00
2018-06-17T10:52:23.321Z,7244.00
2018-06-17T10:53:23.312Z,7572.00
2018-06-17T10:54:23.284Z,7316.00
2018-06-17T10:55:23.289Z,7904.00
2018-06-17T10:56:24.501Z,8884.00
2018-06-17T10:58:09.387Z,8424.00
2018-06-17T10:59:09.247Z,7976.00
2018-06-17T11:00:09.229Z,7936.00
2018-06-17T11:01:09.311Z,7348.00
2018-06-17T11:02:09.187Z,7476.00
2018-06-17T11:03:09.259Z,8336.00
2018-06-17T11:04:09.131Z,7692.00
2018-06-17T11:05:09.328Z,7668.00
2018-06-17T11:06:09.082Z,7268.00
2018-06-17T11:07:09.182Z,7920.00
2018-06-17T11:08:09.061Z,7284.00
2018-06-17T11:09:09.092Z,7008.00
2018-06-17T11:10:09.001Z,6996.00
2018-06-17T11:11:09.265Z,6332.00
2018-06-17T11:12:09.357Z,5692.00
2018-06-17T11:13:09.030Z,5592.00
2018-06-17T11:14:08.929Z,7432.00
2018-06-17T11:15:09.031Z,8664.00
2018-06-17T11:16:08.837Z,9280.00
2018-06-17T11:17:08.947Z,7932.00
2018-06-17T11:18:08.797Z,8116.00
2018-06-17T11:19:08.855Z,8088.00
2018-06-17T11:20:08.761Z,6748.00
2018-06-17T11:21:08.901Z,5840.00
2018-06-17T11:22:08.707Z,6856.00
2018-06-17T11:23:08.716Z,6744.00
2018-06-17T11:24:08.649Z,6240.00
2018-06-17T11:25:08.732Z,5324.00
2018-06-17T11:26:08.598Z,4652.00
2018-06-17T11:27:08.638Z,4888.00
2018-06-17T11:28:08.556Z,7236.00
2018-06-17T11:29:08.553Z,8888.00
2018-06-17T11:30:08.505Z,8512.00
2018-06-17T11:31:08.504Z,7732.00
2018-06-17T11:32:08.459Z,7052.00
2018-06-17T11:33:08.434Z,6572.00
2018-06-17T11:34:08.418Z,6848.00
2018-06-17T11:35:08.392Z,7924.00
2018-06-17T11:36:08.372Z,8828.00
2018-06-17T11:37:08.342Z,9092.00
2018-06-17T11:38:08.326Z,8940.00
2018-06-17T11:39:08.389Z,8564.00
2018-06-17T11:40:08.335Z,8472.00
2018-06-17T11:41:08.261Z,7840.00
2018-06-17T11:42:08.225Z,7684.00
2018-06-17T11:43:08.209Z,8252.00
2018-06-17T11:44:08.179Z,8732.00
2018-06-17T11:45:09.152Z,8724.00
2018-06-17T11:46:08.120Z,8840.00
2018-06-17T11:47:08.105Z,8916.00
2018-06-17T11:48:08.083Z,8856.00
2018-06-17T11:49:08.063Z,9204.00
2018-06-17T11:50:08.028Z,9480.00
2018-06-17T11:51:08.018Z,10020.00
2018-06-17T11:52:07.983Z,9932.00
2018-06-17T11:53:07.953Z,9796.00
2018-06-17T11:54:07.934Z,10328.00
2018-06-17T11:55:07.899Z,11300.00
2018-06-17T11:56:07.884Z,11144.00
2018-06-17T11:57:07.860Z,10468.00
2018-06-17T11:58:07.830Z,10184.00
2018-06-17T11:59:07.826Z,10112.00
2018-06-17T12:00:07.806Z,9764.00
2018-06-17T12:01:07.776Z,9404.00
2018-06-17T12:02:53.211Z,9420.00
2018-06-17T12:03:53.091Z,9156.00
2018-06-17T12:04:53.072Z,9200.00
2018-06-17T12:05:53.063Z,9340.00
2018-06-17T12:06:53.027Z,9200.00
2018-06-17T12:07:52.999Z,9188.00
2018-06-17T12:08:52.968Z,9416.00
2018-06-17T12:09:52.948Z,8708.00
2018-06-17T12:10:52.918Z,8544.00
2018-06-17T12:11:52.900Z,9180.00
2018-06-17T12:12:52.875Z,9344.00
2018-06-17T12:13:52.843Z,9276.00
2018-06-17T12:14:52.840Z,9104.00
2018-06-17T12:15:52.803Z,8796.00
2018-06-17T12:16:52.777Z,8140.00
2018-06-17T12:17:52.760Z,8048.00
2018-06-17T12:18:52.722Z,7916.00
2018-06-17T12:19:52.710Z,8172.00
2018-06-17T12:20:52.678Z,8160.00
2018-06-17T12:21:52.656Z,8204.00
2018-06-17T12:22:52.639Z,8352.00
2018-06-17T12:23:52.611Z,8264.00
2018-06-17T12:24:52.578Z,8712.00
2018-06-17T12:25:52.561Z,8540.00
2018-06-17T12:26:52.539Z,8968.00
2018-06-17T12:27:52.508Z,8832.00
2018-06-17T12:28:52.490Z,8024.00
2018-06-17T12:29:52.464Z,7572.00
2018-06-17T12:30:52.439Z,7216.00